Time;durP1;ratioP1;P1;durP2;ratioP2;P2;SDS_P1;SDS_P2;PMS_P1;PMS_P2;Temp;Humidity;BMP_temperature;BMP_pressure;BME280_temperature;BME280_humidity;BME280_pressure;Samples;Min_cycle;Max_cycle;Signal;HPM_P1;HPM_P2
2023/03/14 00:01:29;;;;;;;13.90;1.50;;;10.60;99.90;;;;;;4942229;28;20058;-36
2023/03/14 00:03:55;;;;;;;14.77;2.00;;;10.60;99.90;;;;;;4942880;28;20059;-36
2023/03/14 00:06:21;;;;;;;10.02;1.90;;;10.60;99.90;;;;;;4937625;28;21195;-46
2023/03/14 00:08:47;;;;;;;10.35;2.72;;;10.60;99.90;;;;;;4944706;28;20066;-36
2023/03/14 00:11:19;;;;;;;12.60;2.25;;;10.60;99.90;;;;;;4936839;28;20138;-36
2023/03/14 00:13:49;;;;;;;11.35;2.95;;;10.60;99.90;;;;;;4941977;28;20051;-37
2023/03/14 00:16:14;;;;;;;10.70;1.92;;;10.60;99.90;;;;;;4941045;28;20073;-37
2023/03/14 00:18:40;;;;;;;11.30;1.60;;;10.60;99.90;;;;;;4940695;28;20067;-37
2023/03/14 00:21:08;;;;;;;11.43;1.92;;;10.70;99.90;;;;;;4899952;28;1122618;-38
2023/03/14 00:23:36;;;;;;;10.82;2.20;;;10.70;99.90;;;;;;4919298;29;20059;-37
2023/03/14 00:26:04;;;;;;;12.43;1.98;;;10.70;99.90;;;;;;4921116;29;20076;-37
2023/03/14 00:28:30;;;;;;;14.07;3.25;;;10.80;99.90;;;;;;4917581;29;20092;-37
2023/03/14 00:30:56;;;;;;;13.02;2.10;;;10.80;99.90;;;;;;4923833;29;20094;-37
2023/03/14 00:33:22;;;;;;;8.73;1.85;;;10.80;99.90;;;;;;4923215;28;21038;-46
2023/03/14 00:35:58;;;;;;;11.35;1.70;;;10.80;99.90;;;;;;4925504;29;20107;-38
2023/03/14 00:38:24;;;;;;;10.38;1.98;;;10.80;99.90;;;;;;4920979;29;20064;-37
2023/03/14 00:40:53;;;;;;;12.93;1.80;;;10.70;99.90;;;;;;4919729;29;20047;-37
2023/03/14 00:43:24;;;;;;;13.70;2.10;;;10.70;99.90;;;;;;4919341;29;20517;-37
2023/03/14 00:45:50;;;;;;;12.73;2.85;;;10.70;99.90;;;;;;4922961;29;20185;-37
2023/03/14 00:48:18;;;;;;;11.18;2.35;;;10.70;99.90;;;;;;4928354;29;20117;-37
2023/03/14 00:50:44;;;;;;;10.32;2.88;;;10.70;99.90;;;;;;4940747;29;20051;-37
2023/03/14 00:53:09;;;;;;;11.25;3.05;;;10.60;99.90;;;;;;4941821;29;20497;-37
2023/03/14 00:55:39;;;;;;;9.27;2.25;;;10.60;99.90;;;;;;4920908;29;20069;-36
2023/03/14 00:58:06;;;;;;;8.77;2.38;;;10.60;99.90;;;;;;4912170;29;20059;-37
2023/03/14 01:00:32;;;;;;;17.88;3.25;;;10.50;99.90;;;;;;4940124;28;20047;-38
2023/03/14 01:02:58;;;;;;;11.73;2.95;;;10.50;99.90;;;;;;4941582;29;20511;-37
2023/03/14 01:05:24;;;;;;;14.35;2.50;;;10.40;99.90;;;;;;4942189;28;20059;-38
2023/03/14 01:07:50;;;;;;;17.60;3.78;;;10.40;99.90;;;;;;4926340;29;20466;-37
2023/03/14 01:10:16;;;;;;;14.20;2.88;;;10.30;99.90;;;;;;4940214;29;20051;-38
2023/03/14 01:12:42;;;;;;;12.32;2.47;;;10.30;99.90;;;;;;4939087;29;20137;-37
2023/03/14 01:15:08;;;;;;;12.82;2.60;;;10.20;99.90;;;;;;4936007;28;20146;-38
2023/03/14 01:17:34;;;;;;;13.13;3.05;;;10.20;99.90;;;;;;4940614;28;20636;-37
2023/03/14 01:20:00;;;;;;;10.93;2.28;;;10.10;99.90;;;;;;4937590;29;20047;-38
2023/03/14 01:22:26;;;;;;;10.13;2.22;;;10.00;99.90;;;;;;4941362;29;20091;-38
2023/03/14 01:24:51;;;;;;;14.55;2.05;;;10.00;99.90;;;;;;4945202;29;20131;-38
2023/03/14 01:27:17;;;;;;;10.60;2.42;;;9.90;99.90;;;;;;4939479;28;20564;-36
2023/03/14 01:29:43;;;;;;;11.18;1.98;;;9.90;99.90;;;;;;4940564;29;20398;-37
2023/03/14 01:32:09;;;;;;;12.35;2.20;;;9.90;99.90;;;;;;4939480;29;20576;-37
2023/03/14 01:34:34;;;;;;;15.52;2.50;;;9.90;99.90;;;;;;4939628;29;20085;-36
2023/03/14 01:37:00;;;;;;;7.03;1.90;;;9.80;99.90;;;;;;4944020;29;20429;-36
2023/03/14 01:39:25;;;;;;;11.82;2.03;;;9.90;99.90;;;;;;4922058;29;20063;-37
2023/03/14 01:41:51;;;;;;;9.43;2.00;;;9.90;99.90;;;;;;4942301;29;20059;-37
2023/03/14 01:44:17;;;;;;;8.25;1.25;;;9.90;99.90;;;;;;4939042;28;20078;-38
2023/03/14 01:46:47;;;;;;;8.25;2.20;;;9.90;99.90;;;;;;4942553;28;20103;-37
2023/03/14 01:49:22;;;;;;;11.48;2.08;;;9.90;99.90;;;;;;4939254;28;20512;-37
2023/03/14 01:51:54;;;;;;;12.60;1.77;;;9.80;99.90;;;;;;4943070;28;20574;-38
2023/03/14 01:54:22;;;;;;;9.20;1.95;;;9.80;99.90;;;;;;4937087;28;20421;-37
2023/03/14 01:57:14;;;;;;;14.88;2.00;;;9.80;99.90;;;;;;4925004;29;20074;-37
2023/03/14 01:59:45;;;;;;;14.18;2.58;;;9.80;99.90;;;;;;4934036;28;20055;-38
2023/03/14 02:02:12;;;;;;;11.20;1.90;;;9.80;99.90;;;;;;4923010;28;20055;-37
2023/03/14 02:04:39;;;;;;;15.27;3.08;;;9.80;99.90;;;;;;4942325;28;20595;-37
2023/03/14 02:07:19;;;;;;;11.75;2.17;;;9.90;99.90;;;;;;4942946;28;20051;-38
2023/03/14 02:09:48;;;;;;;13.50;2.55;;;9.90;99.90;;;;;;4934636;28;20070;-37
2023/03/14 02:12:16;;;;;;;16.52;2.05;;;10.00;99.90;;;;;;4939759;28;20523;-38
2023/03/14 02:14:47;;;;;;;9.35;1.90;;;9.90;99.90;;;;;;4940874;28;20094;-38
2023/03/14 02:17:15;;;;;;;11.25;1.70;;;9.90;99.90;;;;;;4941447;28;20134;-38
2023/03/14 02:19:51;;;;;;;8.07;1.85;;;9.90;99.90;;;;;;4938492;28;20051;-37
2023/03/14 02:22:17;;;;;;;6.78;1.67;;;9.80;99.90;;;;;;4935678;28;20072;-37
2023/03/14 02:24:50;;;;;;;10.77;1.83;;;9.70;99.90;;;;;;4939699;28;20473;-37
2023/03/14 02:27:16;;;;;;;;;;;9.70;99.90;;;;;;4939139;28;20075;-37
2023/03/14 02:29:58;;;;;;;9.23;1.63;;;9.70;99.90;;;;;;4939345;28;19918;-37
2023/03/14 02:32:26;;;;;;;10.93;1.50;;;9.70;99.90;;;;;;4941930;28;20139;-37
2023/03/14 02:34:55;;;;;;;12.85;2.22;;;9.60;99.90;;;;;;4935759;28;20059;-37
2023/03/14 02:37:24;;;;;;;8.07;2.22;;;9.60;99.90;;;;;;4938156;28;20062;-37
2023/03/14 02:39:50;;;;;;;5.72;1.20;;;9.50;99.90;;;;;;4940800;28;20110;-42
2023/03/14 02:42:17;;;;;;;4.78;1.58;;;9.40;99.90;;;;;;4940214;28;20074;-37
2023/03/14 02:45:09;;;;;;;6.30;2.17;;;9.40;99.90;;;;;;4941416;28;20047;-38
2023/03/14 02:47:42;;;;;;;8.70;1.45;;;9.30;99.90;;;;;;4902506;28;20437;-37
2023/03/14 02:50:14;;;;;;;3.38;1.10;;;9.30;99.90;;;;;;4940925;28;20047;-37
2023/03/14 02:52:40;;;;;;;4.67;1.77;;;9.20;99.90;;;;;;4937371;28;20471;-37
2023/03/14 02:55:06;;;;;;;7.95;1.55;;;9.20;99.90;;;;;;4941566;29;20047;-38
2023/03/14 02:57:31;;;;;;;7.95;2.33;;;9.20;99.90;;;;;;4942705;28;20399;-38
2023/03/14 03:00:00;;;;;;;7.05;1.80;;;9.10;99.90;;;;;;4943112;28;20059;-38
2023/03/14 03:02:27;;;;;;;10.18;1.55;;;9.10;99.90;;;;;;4942250;28;20131;-37
2023/03/14 03:04:53;;;;;;;6.50;2.30;;;9.10;99.90;;;;;;4939800;29;20742;-37
2023/03/14 03:07:19;;;;;;;5.95;1.77;;;9.10;99.90;;;;;;4940448;28;20145;-36
2023/03/14 03:09:45;;;;;;;7.88;1.80;;;9.10;99.90;;;;;;4924210;29;20044;-37
2023/03/14 03:12:11;;;;;;;7.93;1.35;;;9.10;99.90;;;;;;4948456;29;20129;-37
2023/03/14 03:14:37;;;;;;;11.68;2.78;;;9.10;99.90;;;;;;4946241;29;20051;-40
2023/03/14 03:17:04;;;;;;;7.35;1.88;;;9.10;99.90;;;;;;4928216;28;20050;-36
2023/03/14 03:19:30;;;;;;;8.23;1.98;;;9.10;99.90;;;;;;4942156;28;20067;-37
2023/03/14 03:21:56;;;;;;;7.43;1.70;;;9.10;99.90;;;;;;4926649;29;20087;-36
2023/03/14 03:24:21;;;;;;;11.30;1.90;;;9.10;99.90;;;;;;4939097;28;20147;-37
2023/03/14 03:26:47;;;;;;;10.98;2.08;;;9.10;99.90;;;;;;4941936;28;20106;-37
2023/03/14 03:29:13;;;;;;;6.57;2.00;;;9.10;99.90;;;;;;4939606;28;20047;-37
2023/03/14 03:31:39;;;;;;;12.27;3.42;;;9.10;99.90;;;;;;4943673;28;20150;-37
2023/03/14 03:34:04;;;;;;;8.95;1.70;;;9.10;99.90;;;;;;4953251;28;20059;-37
2023/03/14 03:36:31;;;;;;;9.02;1.80;;;9.10;99.90;;;;;;4945946;28;20093;-37
2023/03/14 03:38:57;;;;;;;9.25;1.80;;;9.10;99.90;;;;;;4943236;28;20101;-37
2023/03/14 03:41:22;;;;;;;8.38;1.63;;;9.10;99.90;;;;;;4935825;28;20440;-37
2023/03/14 03:43:48;;;;;;;11.07;1.70;;;9.10;99.90;;;;;;4942000;28;20043;-36
2023/03/14 03:46:14;;;;;;;9.10;1.65;;;9.00;99.90;;;;;;4941579;29;20058;-37
2023/03/14 03:48:40;;;;;;;7.85;1.85;;;9.10;99.90;;;;;;4939802;28;20059;-37
2023/03/14 03:51:06;;;;;;;8.43;1.60;;;9.10;99.90;;;;;;4939404;28;20055;-37
2023/03/14 03:53:31;;;;;;;6.82;1.70;;;9.00;99.90;;;;;;4943473;28;20179;-37
2023/03/14 03:55:57;;;;;;;7.95;1.50;;;9.00;99.90;;;;;;4940595;28;20059;-37
2023/03/14 03:58:23;;;;;;;10.00;1.63;;;9.00;99.90;;;;;;4941293;28;20138;-38
2023/03/14 04:00:49;;;;;;;7.75;1.50;;;9.00;99.90;;;;;;4944755;28;20496;-37
2023/03/14 04:03:14;;;;;;;11.38;1.40;;;9.00;99.90;;;;;;4942073;28;20138;-37
2023/03/14 04:05:40;;;;;;;8.90;1.55;;;9.00;99.90;;;;;;4943671;28;20158;-36
2023/03/14 04:08:05;;;;;;;6.05;1.60;;;9.00;99.90;;;;;;4941783;28;20053;-37
2023/03/14 04:10:35;;;;;;;6.32;1.30;;;9.00;99.90;;;;;;4939664;28;20102;-37
2023/03/14 04:13:00;;;;;;;6.70;1.88;;;8.90;99.90;;;;;;4942027;28;20086;-37
2023/03/14 04:15:26;;;;;;;11.70;2.00;;;8.90;99.90;;;;;;4941878;28;20058;-37
2023/03/14 04:17:56;;;;;;;7.80;1.80;;;9.00;99.90;;;;;;4940602;28;20043;-37
2023/03/14 04:20:22;;;;;;;6.60;1.55;;;8.90;99.90;;;;;;4941228;28;20048;-37
2023/03/14 04:22:48;;;;;;;9.90;2.47;;;8.90;99.90;;;;;;4941577;28;20523;-36
2023/03/14 04:25:13;;;;;;;3.90;1.55;;;8.90;99.90;;;;;;4941929;28;20043;-37
2023/03/14 04:27:39;;;;;;;6.20;1.67;;;8.90;99.90;;;;;;4943273;28;20518;-38
2023/03/14 04:30:05;;;;;;;8.25;2.20;;;8.90;99.90;;;;;;4942748;28;20107;-37
2023/03/14 04:32:31;;;;;;;6.25;1.67;;;8.90;99.90;;;;;;4942123;28;20589;-37
2023/03/14 04:34:56;;;;;;;5.50;1.83;;;8.90;99.90;;;;;;4931919;28;20187;-38
2023/03/14 04:37:22;;;;;;;6.45;2.10;;;9.00;99.90;;;;;;4940364;28;20498;-37
2023/03/14 04:39:47;;;;;;;7.80;1.70;;;9.00;99.90;;;;;;4938770;28;20055;-37
2023/03/14 04:42:13;;;;;;;6.88;1.88;;;9.00;99.90;;;;;;4939468;28;20265;-37
2023/03/14 04:44:39;;;;;;;12.98;2.33;;;9.00;99.90;;;;;;4943636;28;20531;-36
2023/03/14 04:47:04;;;;;;;5.72;1.90;;;9.10;99.90;;;;;;4941183;28;20568;-36
2023/03/14 04:49:30;;;;;;;7.70;2.00;;;9.10;99.90;;;;;;4945195;28;20067;-36
2023/03/14 04:51:56;;;;;;;7.95;1.75;;;9.20;99.90;;;;;;4942251;28;20053;-37
2023/03/14 04:54:21;;;;;;;8.60;2.08;;;9.20;99.90;;;;;;4939479;28;20686;-37
2023/03/14 04:56:47;;;;;;;6.85;2.20;;;9.10;99.90;;;;;;4946491;28;20051;-36
2023/03/14 04:59:12;;;;;;;5.38;2.03;;;9.20;99.90;;;;;;4941553;28;20064;-36
2023/03/14 05:01:38;;;;;;;8.15;1.85;;;9.20;99.90;;;;;;4941637;28;20069;-36
2023/03/14 05:04:04;;;;;;;8.63;2.17;;;9.10;99.90;;;;;;4941678;28;20058;-36
2023/03/14 05:06:29;;;;;;;5.88;1.73;;;9.20;99.90;;;;;;4941873;29;20098;-37
2023/03/14 05:08:55;;;;;;;7.85;1.90;;;9.10;99.90;;;;;;4942331;28;20683;-36
2023/03/14 05:11:20;;;;;;;9.02;1.95;;;9.10;99.90;;;;;;4941088;28;20059;-36
2023/03/14 05:13:46;;;;;;;7.72;1.92;;;9.10;99.90;;;;;;4942533;28;20063;-38
2023/03/14 05:16:12;;;;;;;6.18;1.90;;;9.10;99.90;;;;;;4939696;28;20055;-36
2023/03/14 05:18:37;;;;;;;11.60;2.75;;;9.10;99.90;;;;;;4939030;28;20059;-36
2023/03/14 05:21:04;;;;;;;5.18;1.77;;;9.10;99.90;;;;;;4943420;28;20055;-36
2023/03/14 05:23:30;;;;;;;10.43;2.40;;;9.10;99.90;;;;;;4942167;28;20055;-36
2023/03/14 05:25:56;;;;;;;6.63;1.75;;;9.10;99.90;;;;;;4941771;28;20126;-36
2023/03/14 05:28:21;;;;;;;6.65;1.63;;;9.10;99.90;;;;;;4940860;28;20752;-36
2023/03/14 05:30:47;;;;;;;7.95;2.05;;;9.10;99.90;;;;;;4944302;28;20462;-36
2023/03/14 05:33:13;;;;;;;4.97;1.90;;;9.10;99.90;;;;;;4934311;28;20047;-36
2023/03/14 05:35:39;;;;;;;3.90;1.17;;;9.00;99.90;;;;;;4941289;28;20464;-37
2023/03/14 05:38:04;;;;;;;4.55;1.30;;;9.00;99.90;;;;;;4941255;28;20552;-37
2023/03/14 05:40:30;;;;;;;4.63;1.40;;;8.90;99.90;;;;;;4942741;28;20047;-37
2023/03/14 05:42:56;;;;;;;11.02;2.13;;;8.90;99.90;;;;;;4939393;28;20047;-37
2023/03/14 05:45:21;;;;;;;9.88;2.00;;;8.90;99.90;;;;;;4943563;29;20043;-36
2023/03/14 05:47:47;;;;;;;5.13;2.05;;;8.90;99.90;;;;;;4941887;28;20420;-37
2023/03/14 05:50:13;;;;;;;7.28;1.67;;;8.90;99.90;;;;;;4939409;28;20058;-36
2023/03/14 05:52:38;;;;;;;7.63;1.60;;;8.90;99.90;;;;;;4937527;28;20428;-36
2023/03/14 05:55:04;;;;;;;9.52;2.15;;;8.90;99.90;;;;;;4933709;28;20190;-36
2023/03/14 05:57:30;;;;;;;8.07;1.80;;;8.90;99.90;;;;;;4939155;28;20055;-36
2023/03/14 05:59:56;;;;;;;9.63;2.08;;;8.90;99.90;;;;;;4940308;28;20098;-37
2023/03/14 06:02:21;;;;;;;12.10;2.38;;;8.90;99.90;;;;;;4940544;29;20125;-37
2023/03/14 06:04:47;;;;;;;5.40;1.15;;;8.90;99.90;;;;;;4942522;28;20135;-37
2023/03/14 06:07:13;;;;;;;4.80;1.80;;;8.90;99.90;;;;;;4938646;28;20134;-37
2023/03/14 06:09:39;;;;;;;8.98;2.33;;;8.90;99.90;;;;;;4943260;28;20414;-37
2023/03/14 06:12:05;;;;;;;4.00;1.42;;;8.80;99.90;;;;;;4940475;28;20043;-37
2023/03/14 06:14:31;;;;;;;3.90;1.10;;;8.90;99.90;;;;;;4942317;28;20446;-37
2023/03/14 06:16:58;;;;;;;3.85;0.93;;;8.80;99.90;;;;;;4943011;28;20468;-37
2023/03/14 06:19:25;;;;;;;4.95;1.40;;;8.80;99.90;;;;;;4941018;28;20146;-36
2023/03/14 06:21:51;;;;;;;3.00;1.20;;;8.90;99.90;;;;;;4944059;28;20561;-37
2023/03/14 06:24:16;;;;;;;5.40;2.10;;;8.90;99.90;;;;;;4940476;28;20146;-37
2023/03/14 06:26:42;;;;;;;7.07;2.22;;;8.90;99.90;;;;;;4941797;28;20057;-37
2023/03/14 06:29:08;;;;;;;7.40;1.70;;;8.90;99.90;;;;;;4939752;28;20256;-38
2023/03/14 06:31:34;;;;;;;5.28;1.50;;;8.90;99.90;;;;;;4941841;28;20059;-37
2023/03/14 06:34:00;;;;;;;6.00;2.08;;;8.90;99.90;;;;;;4934603;28;20540;-37
2023/03/14 06:36:26;;;;;;;7.93;1.83;;;8.90;99.90;;;;;;4939122;28;20074;-37
2023/03/14 06:38:51;;;;;;;9.13;2.33;;;8.90;99.90;;;;;;4940235;28;20073;-38
2023/03/14 06:41:17;;;;;;;10.05;2.25;;;8.90;99.90;;;;;;4939278;28;20137;-37
2023/03/14 06:43:43;;;;;;;6.25;1.75;;;8.90;99.90;;;;;;4933925;28;20083;-38
2023/03/14 06:46:09;;;;;;;6.57;1.90;;;8.90;99.90;;;;;;4934551;28;20162;-37
2023/03/14 06:48:34;;;;;;;2.25;0.90;;;8.80;99.90;;;;;;4936773;28;20050;-38
2023/03/14 06:51:00;;;;;;;2.70;0.65;;;8.80;99.90;;;;;;4940630;28;20077;-37
2023/03/14 06:53:26;;;;;;;4.75;0.90;;;8.70;99.90;;;;;;4938079;28;20138;-37
2023/03/14 06:55:52;;;;;;;5.40;0.70;;;8.70;99.90;;;;;;4942177;28;20047;-36
2023/03/14 06:58:17;;;;;;;4.95;0.60;;;8.60;99.90;;;;;;4937725;28;20598;-37
2023/03/14 07:00:43;;;;;;;3.45;0.60;;;8.50;99.90;;;;;;4938709;28;20055;-37
2023/03/14 07:03:10;;;;;;;1.77;0.60;;;8.40;99.90;;;;;;4938157;28;20051;-37
2023/03/14 07:05:35;;;;;;;4.93;1.35;;;8.30;99.90;;;;;;4943210;28;20114;-38
2023/03/14 07:08:01;;;;;;;2.88;0.73;;;8.20;99.90;;;;;;4942810;28;20047;-37
2023/03/14 07:10:27;;;;;;;2.38;0.63;;;8.10;99.90;;;;;;4937154;28;20047;-37
2023/03/14 07:12:53;;;;;;;3.10;0.50;;;8.00;99.90;;;;;;4935919;28;20047;-37
2023/03/14 07:15:19;;;;;;;4.43;0.57;;;7.90;99.90;;;;;;4931551;28;20058;-37
2023/03/14 07:17:47;;;;;;;3.33;0.50;;;7.80;99.90;;;;;;4937562;28;20090;-37
2023/03/14 07:20:13;;;;;;;3.40;0.82;;;7.70;99.90;;;;;;4936147;28;20048;-37
2023/03/14 07:22:39;;;;;;;5.25;0.60;;;7.70;99.90;;;;;;4939909;28;20073;-37
2023/03/14 07:25:05;;;;;;;2.92;0.38;;;7.60;99.90;;;;;;4936051;28;20058;-37
2023/03/14 07:27:31;;;;;;;4.28;0.35;;;7.50;99.90;;;;;;4936022;28;20054;-37
2023/03/14 07:29:57;;;;;;;2.72;0.43;;;7.50;99.90;;;;;;4930667;28;20047;-37
2023/03/14 07:32:22;;;;;;;6.65;0.55;;;7.30;99.90;;;;;;4934197;28;20055;-37
2023/03/14 07:34:48;;;;;;;5.47;0.85;;;7.20;99.90;;;;;;4937391;28;20051;-37
2023/03/14 07:37:14;;;;;;;6.68;0.82;;;7.10;99.90;;;;;;4937356;28;20047;-37
2023/03/14 07:39:40;;;;;;;4.60;0.50;;;7.00;99.90;;;;;;4937347;28;20070;-37
2023/03/14 07:42:05;;;;;;;3.65;0.50;;;6.90;99.90;;;;;;4941009;28;20058;-37
2023/03/14 07:44:31;;;;;;;2.95;0.40;;;6.80;99.90;;;;;;4939073;28;20058;-37
2023/03/14 07:46:57;;;;;;;3.40;0.45;;;6.80;99.90;;;;;;4939903;28;20075;-36
2023/03/14 07:49:22;;;;;;;4.63;0.50;;;6.70;99.90;;;;;;4942372;28;20413;-37
2023/03/14 07:51:48;;;;;;;6.70;0.55;;;6.60;99.90;;;;;;4940584;28;20062;-37
2023/03/14 07:54:14;;;;;;;3.10;0.28;;;6.50;99.90;;;;;;4940262;28;20059;-38
2023/03/14 07:56:39;;;;;;;2.90;0.20;;;6.40;99.90;;;;;;4942979;28;20147;-37
2023/03/14 07:59:05;;;;;;;3.55;0.28;;;6.40;99.90;;;;;;4939309;28;20469;-37
2023/03/14 08:01:31;;;;;;;1.88;0.10;;;6.30;99.90;;;;;;4943704;28;20051;-37
2023/03/14 08:03:56;;;;;;;2.65;0.28;;;6.30;99.90;;;;;;4943171;28;20051;-37
2023/03/14 08:06:22;;;;;;;1.48;0.10;;;6.20;99.90;;;;;;4945535;28;20069;-37
2023/03/14 08:08:48;;;;;;;1.80;0.17;;;6.10;99.90;;;;;;4941886;28;20051;-38
2023/03/14 08:11:14;;;;;;;2.38;0.20;;;6.10;99.90;;;;;;4954359;28;20098;-37
2023/03/14 08:13:39;;;;;;;1.52;0.20;;;6.00;99.90;;;;;;4940966;28;20143;-48
2023/03/14 08:16:06;;;;;;;2.22;0.13;;;6.00;99.90;;;;;;4939765;28;20051;-43
2023/03/14 08:18:32;;;;;;;1.83;0.20;;;5.90;99.90;;;;;;4937750;28;20071;-46
2023/03/14 08:20:58;;;;;;;4.78;0.20;;;6.00;99.90;;;;;;4926753;28;20055;-38
2023/03/14 08:23:24;;;;;;;0.98;0.13;;;6.00;99.90;;;;;;4938409;28;20054;-38
2023/03/14 08:25:51;;;;;;;1.52;0.10;;;6.00;99.90;;;;;;4943142;28;20058;-38
2023/03/14 08:28:17;;;;;;;2.55;0.10;;;6.00;99.90;;;;;;4944115;28;20051;-38
2023/03/14 08:30:43;;;;;;;0.30;0.10;;;6.00;99.90;;;;;;4942458;29;20130;-38
2023/03/14 08:33:09;;;;;;;3.65;0.10;;;6.10;99.90;;;;;;4941557;28;20058;-38
2023/03/14 08:35:37;;;;;;;3.72;0.10;;;6.10;99.90;;;;;;4942687;28;20055;-38
2023/03/14 08:38:02;;;;;;;1.88;0.10;;;6.10;99.90;;;;;;4943380;28;20351;-38
2023/03/14 08:40:28;;;;;;;0.70;0.10;;;6.20;99.90;;;;;;4938774;28;20147;-38
2023/03/14 08:42:54;;;;;;;5.00;0.40;;;6.20;99.90;;;;;;4939368;28;20043;-38
2023/03/14 08:45:19;;;;;;;4.05;0.20;;;6.20;99.90;;;;;;4941466;28;20055;-38
2023/03/14 08:47:45;;;;;;;0.20;0.10;;;6.30;99.90;;;;;;4938025;28;20066;-38
2023/03/14 08:50:11;;;;;;;4.05;0.38;;;6.30;99.90;;;;;;4940435;28;20050;-38
2023/03/14 08:52:40;;;;;;;3.30;0.25;;;6.30;99.90;;;;;;4945930;28;20043;-38
2023/03/14 08:55:08;;;;;;;4.35;0.60;;;6.30;99.90;;;;;;4940658;28;20184;-38
2023/03/14 08:57:34;;;;;;;4.07;0.85;;;6.40;99.90;;;;;;4940249;28;20059;-38
2023/03/14 09:00:00;;;;;;;4.10;0.35;;;6.40;99.90;;;;;;4940179;28;20047;-38
2023/03/14 09:02:26;;;;;;;8.13;0.43;;;6.50;99.90;;;;;;4941760;28;20134;-38
2023/03/14 09:04:53;;;;;;;3.28;0.20;;;6.60;99.90;;;;;;4941706;28;20058;-38
2023/03/14 09:07:19;;;;;;;2.67;0.30;;;6.60;99.90;;;;;;4940610;28;20419;-38
2023/03/14 09:09:45;;;;;;;1.23;0.20;;;6.70;99.90;;;;;;4940242;28;20138;-38
2023/03/14 09:12:11;;;;;;;4.70;0.30;;;6.80;99.90;;;;;;4942138;28;20051;-48
2023/03/14 09:14:37;;;;;;;2.53;0.30;;;6.90;99.90;;;;;;4941021;28;20100;-48
2023/03/14 09:17:04;;;;;;;2.85;0.28;;;6.90;99.90;;;;;;4938372;28;21142;-38
2023/03/14 09:19:29;;;;;;;3.10;0.30;;;7.00;99.90;;;;;;4935517;28;20551;-38
2023/03/14 09:21:55;;;;;;;4.78;0.30;;;7.00;99.90;;;;;;4942290;28;20112;-38
2023/03/14 09:24:21;;;;;;;15.43;0.95;;;7.00;99.90;;;;;;4941659;28;20075;-38
2023/03/14 09:26:47;;;;;;;3.83;0.30;;;7.00;99.90;;;;;;4939350;28;21222;-38
2023/03/14 09:29:13;;;;;;;6.00;0.40;;;7.00;99.90;;;;;;4941824;28;20502;-38
2023/03/14 09:31:38;;;;;;;6.15;0.63;;;7.10;99.90;;;;;;4942429;28;20141;-38
2023/03/14 09:34:04;;;;;;;5.45;0.40;;;7.20;99.90;;;;;;4941036;28;20109;-38
2023/03/14 09:36:30;;;;;;;7.72;0.75;;;7.20;99.90;;;;;;4940439;28;20419;-38
2023/03/14 09:38:55;;;;;;;4.15;0.88;;;7.30;99.90;;;;;;4941939;28;20501;-38
2023/03/14 09:41:26;;;;;;;9.63;0.80;;;7.40;99.90;;;;;;4942664;28;20047;-38
2023/03/14 09:44:16;;;;;;;10.77;1.42;;;7.50;99.90;;;;;;4941148;28;20138;-38
2023/03/14 09:46:47;;;;;;;8.10;1.35;;;7.60;99.90;;;;;;4929483;28;20142;-38
2023/03/14 09:49:30;;;;;;;9.13;0.82;;;7.60;99.90;;;;;;4943759;28;20047;-38
2023/03/14 09:51:57;;;;;;;;;;;7.60;99.90;;;;;;4945533;28;20063;-38
2023/03/14 09:54:29;;;;;;;12.55;0.90;;;7.60;99.90;;;;;;4938884;28;19918;-38
2023/03/14 09:56:54;;;;;;;6.27;0.50;;;7.60;99.90;;;;;;4936026;28;20146;-38
2023/03/14 09:59:20;;;;;;;3.33;1.27;;;7.50;99.90;;;;;;4942540;28;20185;-38
2023/03/14 10:01:46;;;;;;;7.75;1.13;;;7.40;99.90;;;;;;4941710;28;20154;-38
2023/03/14 10:04:16;;;;;;;6.78;0.90;;;7.30;99.90;;;;;;4941138;28;20065;-38
2023/03/14 10:06:42;;;;;;;6.30;0.57;;;7.20;99.90;;;;;;4941864;28;20078;-38
2023/03/14 10:09:17;;;;;;;8.25;0.90;;;7.00;99.90;;;;;;4943836;28;20501;-38
2023/03/14 10:11:42;;;;;;;8.95;0.80;;;7.00;99.90;;;;;;4938606;28;20070;-38
2023/03/14 10:14:12;;;;;;;8.63;0.93;;;7.00;99.90;;;;;;4939181;28;20052;-38
2023/03/14 10:16:43;;;;;;;11.10;1.50;;;7.00;99.90;;;;;;4935753;28;20085;-38
2023/03/14 10:19:14;;;;;;;22.75;3.90;;;7.10;99.90;;;;;;4940652;28;20889;-38
2023/03/14 10:21:42;;;;;;;8.55;1.10;;;7.20;99.90;;;;;;4938794;28;20051;-39
2023/03/14 10:24:22;;;;;;;14.90;2.40;;;7.40;99.90;;;;;;4941754;28;20517;-38
2023/03/14 10:26:51;;;;;;;9.35;0.95;;;7.50;99.90;;;;;;4940606;28;20062;-38
2023/03/14 10:29:17;;;;;;;14.20;1.60;;;7.60;99.90;;;;;;4941376;28;20138;-48
2023/03/14 10:32:02;;;;;;;15.70;1.52;;;7.70;99.90;;;;;;4940834;28;20140;-48
2023/03/14 10:34:34;;;;;;;21.38;3.20;;;7.70;99.90;;;;;;4944161;28;20055;-49
2023/03/14 10:37:27;;;;;;;11.47;1.53;;;7.60;99.90;;;;;;4940209;28;20084;-47
2023/03/14 10:40:07;;;;;;;21.30;2.55;;;7.60;99.90;;;;;;4939875;28;20401;-48
2023/03/14 10:42:38;;;;;;;17.65;1.75;;;7.60;99.90;;;;;;4943573;28;20051;-45
2023/03/14 10:45:22;;;;;;;8.98;1.00;;;7.60;99.90;;;;;;4941093;29;20055;-48
2023/03/14 10:47:50;;;;;;;9.02;1.33;;;7.60;98.90;;;;;;4941572;28;20089;-49
2023/03/14 10:50:30;;;;;;;19.00;1.40;;;7.70;98.80;;;;;;4943373;29;20051;-47
2023/03/14 10:53:00;;;;;;;11.40;1.55;;;7.80;98.40;;;;;;4944132;28;20051;-49
2023/03/14 10:55:26;;;;;;;12.43;1.45;;;7.90;98.40;;;;;;4938577;28;20078;-48
2023/03/14 10:57:52;;;;;;;11.60;2.92;;;7.90;97.20;;;;;;4941419;28;20105;-46
2023/03/14 11:00:22;;;;;;;10.15;1.55;;;7.90;96.60;;;;;;4937972;29;20051;-49
2023/03/14 11:03:06;;;;;;;18.20;1.85;;;8.00;96.70;;;;;;4937581;28;20733;-48
2023/03/14 11:05:41;;;;;;;7.88;1.05;;;8.00;96.70;;;;;;4927434;29;20078;-45
2023/03/14 11:08:31;;;;;;;7.85;1.85;;;8.10;95.40;;;;;;4937981;28;20062;-47
2023/03/14 11:11:22;;;;;;;10.25;1.10;;;8.10;95.00;;;;;;4926716;29;20130;-48
2023/03/14 11:14:29;;;;;;;8.10;1.38;;;8.10;93.70;;;;;;4938652;29;20052;-47
2023/03/14 11:17:38;;;;;;;9.55;1.30;;;8.10;91.80;;;;;;4924021;28;20055;-43
2023/03/14 11:20:25;;;;;;;14.45;1.90;;;8.10;90.90;;;;;;4935454;28;20098;-46
2023/03/14 11:23:03;;;;;;;8.15;0.70;;;8.20;91.60;;;;;;4941847;28;20090;-48
2023/03/14 11:25:38;;;;;;;6.00;0.70;;;8.20;90.30;;;;;;4936951;29;20557;-50
2023/03/14 11:28:25;;;;;;;9.38;1.02;;;8.20;90.40;;;;;;4936289;29;20556;-46
2023/03/14 11:30:54;;;;;;;5.18;0.88;;;8.00;88.90;;;;;;4938202;28;20047;-45
2023/03/14 11:33:36;;;;;;;11.32;0.90;;;7.80;88.70;;;;;;4945602;28;20052;-45
2023/03/14 11:36:11;;;;;;;8.18;0.60;;;7.90;87.30;;;;;;4939369;28;20493;-47
2023/03/14 11:38:47;;;;;;;4.53;0.60;;;8.10;86.00;;;;;;4941712;28;20122;-43
2023/03/14 11:41:22;;;;;;;5.47;0.65;;;8.30;84.90;;;;;;4932997;29;20070;-46
2023/03/14 11:43:52;;;;;;;7.00;0.68;;;8.60;82.60;;;;;;4944394;29;20098;-47
2023/03/14 11:46:24;;;;;;;6.05;0.60;;;8.90;82.60;;;;;;4942667;28;20197;-48
2023/03/14 11:49:12;;;;;;;8.95;0.88;;;8.90;84.30;;;;;;4938603;28;20051;-48
2023/03/14 11:51:46;;;;;;;9.25;2.35;;;8.80;81.00;;;;;;4942411;28;20440;-48
2023/03/14 11:54:17;;;;;;;6.38;0.70;;;8.80;82.20;;;;;;4945445;28;20502;-50
2023/03/14 11:57:05;;;;;;;5.82;0.80;;;8.90;81.80;;;;;;4943591;28;20051;-48
2023/03/14 11:59:49;;;;;;;7.68;0.80;;;8.90;79.50;;;;;;4943393;28;20055;-47
2023/03/14 12:02:23;;;;;;;5.05;0.52;;;8.80;81.60;;;;;;4943642;28;20064;-46
2023/03/14 12:05:35;;;;;;;3.92;1.38;;;8.90;80.30;;;;;;4942764;28;20065;-46
2023/03/14 12:08:19;;;;;;;3.80;0.60;;;8.90;75.30;;;;;;4869813;29;20533;-46
2023/03/14 12:10:55;;;;;;;5.15;0.68;;;8.80;72.80;;;;;;4871538;29;20057;-45
2023/03/14 12:13:21;;;;;;;4.75;0.20;;;8.80;73.60;;;;;;4922184;28;20046;-47
2023/03/14 12:15:58;;;;;;;4.72;0.50;;;8.90;70.70;;;;;;4937389;28;20517;-45
2023/03/14 12:18:28;;;;;;;2.15;0.40;;;8.90;69.20;;;;;;4938449;28;20095;-47
2023/03/14 12:20:58;;;;;;;4.15;0.30;;;9.00;70.20;;;;;;4940071;28;20052;-43
2023/03/14 12:23:25;;;;;;;4.40;0.30;;;9.20;69.30;;;;;;4943248;28;20113;-50
2023/03/14 12:26:18;;;;;;;5.40;0.55;;;9.50;68.10;;;;;;4946520;28;20043;-47
2023/03/14 12:28:59;;;;;;;4.70;0.40;;;9.70;63.60;;;;;;4942018;28;20061;-45
2023/03/14 12:31:30;;;;;;;6.80;0.40;;;10.10;63.50;;;;;;4941952;28;20058;-46
2023/03/14 12:34:11;;;;;;;20.70;1.15;;;10.50;60.90;;;;;;4943061;28;20190;-52
2023/03/14 12:36:49;;;;;;;2.58;0.47;;;10.80;59.40;;;;;;4944114;28;20051;-45
2023/03/14 12:39:33;;;;;;;9.43;0.50;;;11.20;59.20;;;;;;4943384;28;20063;-47
2023/03/14 12:42:04;;;;;;;2.63;0.50;;;11.60;57.30;;;;;;4947072;28;20178;-46
2023/03/14 12:44:29;;;;;;;4.78;0.38;;;11.90;58.30;;;;;;4945998;28;20549;-47
2023/03/14 12:46:59;;;;;;;3.42;0.32;;;11.70;56.30;;;;;;4944342;28;20142;-49
2023/03/14 12:49:32;;;;;;;14.35;2.28;;;11.20;57.50;;;;;;4949144;28;20541;-48
2023/03/14 12:52:01;;;;;;;4.45;0.60;;;10.60;60.40;;;;;;4943566;28;20078;-48
2023/03/14 12:54:35;;;;;;;4.65;0.63;;;10.20;62.40;;;;;;4944125;28;20055;-45
2023/03/14 12:57:27;;;;;;;7.90;1.08;;;10.10;63.20;;;;;;4940449;28;20043;-38
2023/03/14 12:59:59;;;;;;;3.63;0.43;;;10.00;64.40;;;;;;4942924;28;20831;-37
2023/03/14 13:02:39;;;;;;;5.88;0.60;;;10.50;63.90;;;;;;4941496;28;20421;-37